Time;durP1;ratioP1;P1;durP2;ratioP2;P2;SDS_P1;SDS_P2;PMS_P1;PMS_P2;Temp;Humidity;BMP_temperature;BMP_pressure;BME280_temperature;BME280_humidity;BME280_pressure;Samples;Min_cycle;Max_cycle;Signal;HPM_P1;HPM_P2
2023/10/30 00:00:25;;;;;;;0.43;0.43;;;;;;;8.19;100.00;94941.69;1014034;29;20127;-71
2023/10/30 00:00:56;;;;;;;0.30;0.30;;;;;;;8.20;100.00;94950.28;1018971;28;20032;-72
2023/10/30 00:01:26;;;;;;;0.25;0.25;;;;;;;8.17;100.00;94945.59;1028511;28;20023;-73
2023/10/30 00:01:57;;;;;;;0.10;0.10;;;;;;;8.08;100.00;94937.53;1022398;29;20031;-72
2023/10/30 00:02:27;;;;;;;0.77;0.77;;;;;;;8.13;100.00;94939.34;1022430;29;20038;-74
2023/10/30 00:02:58;;;;;;;0.75;0.75;;;;;;;8.08;100.00;94937.53;1018084;29;20123;-72
2023/10/30 00:03:29;;;;;;;0.20;0.20;;;;;;;8.11;100.00;94947.44;1018763;28;20019;-73
2023/10/30 00:04:00;;;;;;;0.73;0.73;;;;;;;8.05;100.00;94935.47;1022489;28;20035;-74
2023/10/30 00:04:30;;;;;;;2.65;1.33;;;;;;;8.09;100.00;94944.31;1022641;28;20809;-71
2023/10/30 00:05:01;;;;;;;1.63;1.38;;;;;;;8.03;100.00;94934.94;1026140;28;20030;-72
2023/10/30 00:05:31;;;;;;;2.03;1.35;;;;;;;8.12;100.00;94943.03;1026616;28;20521;-72
2023/10/30 00:06:02;;;;;;;1.55;0.95;;;;;;;8.12;100.00;94948.25;1022448;28;20034;-72
2023/10/30 00:06:33;;;;;;;0.70;0.55;;;;;;;8.12;100.00;94943.78;1022558;29;20132;-75
2023/10/30 00:07:03;;;;;;;0.55;0.55;;;;;;;8.10;100.00;94948.50;1022880;28;20317;-73
2023/10/30 00:07:34;;;;;;;0.32;0.32;;;;;;;8.08;100.00;94939.34;1022788;28;20031;-73
2023/10/30 00:08:05;;;;;;;0.85;0.85;;;;;;;8.11;100.00;94952.66;1018515;29;20028;-74
2023/10/30 00:08:35;;;;;;;1.10;1.00;;;;;;;8.09;100.00;94941.72;1022833;29;20019;-76
2023/10/30 00:09:06;;;;;;;1.13;0.50;;;;;;;8.11;100.00;94947.44;1018751;29;20267;-72
2023/10/30 00:09:36;;;;;;;1.90;0.82;;;;;;;8.10;100.00;94945.09;1018930;28;20057;-72
2023/10/30 00:10:07;;;;;;;0.47;0.47;;;;;;;8.10;100.00;94945.88;1021802;29;20031;-73
2023/10/30 00:10:38;;;;;;;0.52;0.52;;;;;;;8.08;100.00;94945.38;1022660;29;20026;-72
2023/10/30 00:11:08;;;;;;;0.30;0.30;;;;;;;8.03;100.00;94940.16;1022499;29;20094;-73
2023/10/30 00:11:39;;;;;;;0.73;0.73;;;;;;;8.07;100.00;94946.41;1022816;28;20062;-72
2023/10/30 00:12:09;;;;;;;0.28;0.28;;;;;;;8.00;100.00;94931.00;1030599;28;20393;-72
2023/10/30 00:12:40;;;;;;;0.93;0.88;;;;;;;8.03;100.00;94940.16;1026586;28;20190;-73
2023/10/30 00:13:10;;;;;;;0.50;0.50;;;;;;;8.03;100.00;94942.78;1026519;28;20026;-74
2023/10/30 00:13:42;;;;;;;0.52;0.43;;;;;;;7.97;100.00;94933.38;1026644;28;20022;-73
2023/10/30 00:14:12;;;;;;;1.40;1.33;;;;;;;8.01;100.00;94944.84;1026864;28;20023;-74
2023/10/30 00:14:43;;;;;;;0.57;0.32;;;;;;;8.01;100.00;94944.84;1030417;28;20293;-72
2023/10/30 00:15:13;;;;;;;1.23;1.13;;;;;;;7.98;100.00;94950.59;1026364;28;20027;-72
2023/10/30 00:15:44;;;;;;;1.95;1.27;;;;;;;7.97;100.00;94951.66;1022456;29;20876;-75
2023/10/30 00:16:15;;;;;;;0.60;0.60;;;;;;;7.95;100.00;94957.16;1022408;28;20032;-72
2023/10/30 00:16:46;;;;;;;0.35;0.35;;;;;;;7.87;100.00;94941.25;1022588;28;20063;-72
2023/10/30 00:17:16;;;;;;;0.55;0.55;;;;;;;7.92;100.00;94959.53;1026316;28;20270;-72
2023/10/30 00:17:47;;;;;;;1.73;0.70;;;;;;;7.87;100.00;94949.84;1026633;28;20418;-73
2023/10/30 00:18:17;;;;;;;1.77;0.55;;;;;;;7.90;100.00;94951.16;1022305;29;20041;-72
2023/10/30 00:18:48;;;;;;;1.10;0.95;;;;;;;7.88;100.00;94953.25;1022517;29;20027;-73
2023/10/30 00:19:19;;;;;;;1.85;1.38;;;;;;;7.93;100.00;94950.63;1018364;29;20498;-73
2023/10/30 00:19:50;;;;;;;0.80;0.80;;;;;;;7.92;100.00;94955.06;1018658;29;20263;-72
2023/10/30 00:20:20;;;;;;;0.20;0.20;;;;;;;7.91;100.00;94947.50;1022023;28;20483;-73
2023/10/30 00:20:51;;;;;;;0.32;0.32;;;;;;;7.95;100.00;94951.16;1026805;28;20031;-73
2023/10/30 00:21:21;;;;;;;0.20;0.20;;;;;;;7.90;100.00;94948.53;1030475;28;20510;-72
2023/10/30 00:21:52;;;;;;;1.55;0.40;;;;;;;7.93;100.00;94955.84;1026323;28;20058;-72
2023/10/30 00:22:22;;;;;;;0.60;0.60;;;;;;;7.94;100.00;94952.97;1026600;28;20046;-73
2023/10/30 00:22:53;;;;;;;0.45;0.45;;;;;;;7.95;100.00;94956.38;1026525;28;20027;-73
2023/10/30 00:23:23;;;;;;;0.73;0.73;;;;;;;7.95;100.00;94953.78;1026363;28;20035;-72
2023/10/30 00:23:54;;;;;;;1.85;0.98;;;;;;;7.97;100.00;94956.88;1029809;28;20034;-73
2023/10/30 00:24:25;;;;;;;1.75;1.15;;;;;;;7.97;100.00;94956.88;1031604;28;20030;-73
2023/10/30 00:24:55;;;;;;;0.98;0.95;;;;;;;7.95;100.00;94959.00;1030601;28;20046;-73
2023/10/30 00:25:26;;;;;;;0.10;0.10;;;;;;;7.89;100.00;94955.59;1030380;28;20026;-72
2023/10/30 00:25:56;;;;;;;1.23;1.17;;;;;;;7.82;100.00;94943.88;1026578;28;20035;-73
2023/10/30 00:26:27;;;;;;;0.47;0.47;;;;;;;7.86;100.00;94947.53;1026456;28;20078;-72
2023/10/30 00:26:58;;;;;;;0.50;0.50;;;;;;;7.76;100.00;94937.88;1022412;28;20877;-73
2023/10/30 00:27:28;;;;;;;0.17;0.17;;;;;;;7.91;100.00;94948.28;1022501;29;20035;-71
2023/10/30 00:28:00;;;;;;;0.20;0.20;;;;;;;7.87;100.00;94951.69;1022486;29;20050;-72
2023/10/30 00:28:31;;;;;;;0.28;0.28;;;;;;;7.90;100.00;94946.72;1022664;28;20039;-72
2023/10/30 00:29:01;;;;;;;0.47;0.47;;;;;;;7.89;100.00;94953.00;1023191;28;20289;-72
2023/10/30 00:29:38;;;;;;;1.33;1.23;;;;;;;7.90;100.00;94951.16;1030528;28;20060;-73
2023/10/30 00:30:09;;;;;;;0.15;0.15;;;;;;;7.91;100.00;94956.09;1021787;28;20078;-73
2023/10/30 00:30:40;;;;;;;0.70;0.70;;;;;;;7.83;100.00;94946.22;1023698;28;20423;-73
2023/10/30 00:31:10;;;;;;;0.70;0.70;;;;;;;7.86;100.00;94955.34;1022376;29;20366;-72
2023/10/30 00:31:41;;;;;;;1.58;0.73;;;;;;;7.84;100.00;94963.44;1018704;28;20027;-72
2023/10/30 00:32:11;;;;;;;0.20;0.20;;;;;;;7.85;100.00;94964.25;1026444;28;20062;-72
2023/10/30 00:32:41;;;;;;;0.40;0.40;;;;;;;7.83;100.00;94966.31;1026360;28;20828;-72
2023/10/30 00:33:13;;;;;;;0.05;0.05;;;;;;;7.79;100.00;94961.63;1022416;28;20031;-72
2023/10/30 00:33:43;;;;;;;1.65;0.68;;;;;;;7.80;100.00;94957.97;1026460;28;20110;-72
2023/10/30 00:34:13;;;;;;;0.63;0.35;;;;;;;7.80;100.00;94963.19;1026628;28;20266;-72
2023/10/30 00:34:44;;;;;;;0.52;0.52;;;;;;;7.83;100.00;94961.88;1030632;28;20034;-73
2023/10/30 00:35:14;;;;;;;0.88;0.80;;;;;;;7.83;100.00;94955.88;1034320;28;20429;-73
2023/10/30 00:35:45;;;;;;;0.32;0.32;;;;;;;7.77;100.00;94953.25;1030466;28;20089;-73
2023/10/30 00:36:15;;;;;;;0.35;0.35;;;;;;;7.82;100.00;94960.31;1022581;29;20035;-73
2023/10/30 00:36:46;;;;;;;0.85;0.80;;;;;;;7.78;100.00;94949.63;1022420;29;20027;-71
2023/10/30 00:37:16;;;;;;;0.20;0.20;;;;;;;7.83;100.00;94956.66;1029182;28;20065;-73
2023/10/30 00:37:47;;;;;;;0.70;0.65;;;;;;;7.82;100.00;94954.31;1030401;28;20031;-73
2023/10/30 00:38:17;;;;;;;4.03;0.63;;;;;;;7.80;100.00;94960.56;1026410;28;20177;-72
2023/10/30 00:38:48;;;;;;;0.25;0.25;;;;;;;7.80;100.00;94963.19;1026210;28;20027;-74
2023/10/30 00:39:18;;;;;;;1.98;0.45;;;;;;;7.78;100.00;94957.47;1026198;28;20042;-72
2023/10/30 00:39:49;;;;;;;0.30;0.30;;;;;;;7.72;100.00;94945.44;1030205;28;20037;-73
2023/10/30 00:40:19;;;;;;;0.10;0.10;;;;;;;7.76;100.00;94945.72;1033708;28;20030;-72
2023/10/30 00:40:50;;;;;;;0.13;0.13;;;;;;;7.76;100.00;94956.16;1030532;28;20034;-73
2023/10/30 00:41:21;;;;;;;1.10;1.10;;;;;;;7.75;100.00;94949.38;1018469;29;20519;-72
2023/10/30 00:41:51;;;;;;;0.10;0.10;;;;;;;7.75;100.00;94954.59;1018524;29;20263;-74
2023/10/30 00:42:25;;;;;;;0.63;0.63;;;;;;;7.74;100.00;94953.00;1018428;29;20111;-74
2023/10/30 00:42:56;;;;;;;1.23;0.70;;;;;;;7.72;100.00;94948.06;1019588;28;20031;-74
2023/10/30 00:43:27;;;;;;;0.55;0.55;;;;;;;7.72;100.00;94950.66;1027047;28;20269;-72
2023/10/30 00:43:57;;;;;;;0.55;0.55;;;;;;;7.71;100.00;94954.34;1026373;28;20277;-72
2023/10/30 00:44:28;;;;;;;0.13;0.13;;;;;;;7.71;100.00;94953.53;1026618;28;20102;-73
2023/10/30 00:44:58;;;;;;;1.35;0.45;;;;;;;7.70;100.00;94957.19;1026368;28;20030;-73
2023/10/30 00:45:28;;;;;;;1.73;0.68;;;;;;;7.68;100.00;94965.31;1022203;28;20031;-73
2023/10/30 00:45:59;;;;;;;0.45;0.30;;;;;;;7.55;100.00;94940.50;1022438;29;20027;-72
2023/10/30 00:46:29;;;;;;;5.88;0.80;;;;;;;7.68;100.00;94964.50;1022511;28;20072;-73
2023/10/30 00:47:00;;;;;;;3.42;0.68;;;;;;;7.62;100.00;94958.53;1022485;29;20035;-71
2023/10/30 00:47:30;;;;;;;0.30;0.30;;;;;;;7.70;100.00;94960.59;1018290;29;20051;-72
2023/10/30 00:48:01;;;;;;;0.40;0.40;;;;;;;7.70;100.00;94967.63;1018476;29;20032;-73
2023/10/30 00:48:31;;;;;;;0.20;0.20;;;;;;;7.69;100.00;94971.31;1022335;29;20030;-73
2023/10/30 00:49:02;;;;;;;0.45;0.30;;;;;;;7.69;100.00;94961.66;1022397;28;20079;-73
2023/10/30 00:49:33;;;;;;;0.52;0.52;;;;;;;7.69;100.00;94964.25;1018454;29;20035;-73
2023/10/30 00:50:05;;;;;;;0.75;0.57;;;;;;;7.74;100.00;94960.84;1014024;29;20028;-74
2023/10/30 00:50:36;;;;;;;0.30;0.30;;;;;;;7.77;100.00;94970.75;1018466;29;20834;-72
2023/10/30 00:51:06;;;;;;;0.68;0.47;;;;;;;7.74;100.00;94969.44;1023367;28;20270;-74
2023/10/30 00:51:37;;;;;;;1.33;0.68;;;;;;;7.75;100.00;94968.44;1022403;28;20031;-71
2023/10/30 00:52:07;;;;;;;1.27;0.80;;;;;;;7.74;100.00;94974.69;1026429;28;20037;-74
2023/10/30 00:52:38;;;;;;;0.17;0.17;;;;;;;7.73;100.00;94967.13;1026411;28;20066;-74
2023/10/30 00:53:08;;;;;;;1.35;1.25;;;;;;;7.78;100.00;94982.78;1034464;28;20433;-73
2023/10/30 00:53:38;;;;;;;0.47;0.47;;;;;;;7.75;100.00;94976.25;1038671;28;20029;-73
2023/10/30 00:54:09;;;;;;;1.30;0.55;;;;;;;7.78;100.00;94969.75;1032300;28;20668;-72
2023/10/30 00:54:39;;;;;;;0.30;0.30;;;;;;;7.78;100.00;94965.28;1030520;28;20054;-74
2023/10/30 00:55:10;;;;;;;0.52;0.52;;;;;;;7.79;100.00;94972.06;1030577;28;20030;-71
2023/10/30 00:55:40;;;;;;;0.50;0.50;;;;;;;7.78;100.00;94965.28;1026337;28;20050;-73
2023/10/30 00:56:11;;;;;;;0.30;0.30;;;;;;;7.79;100.00;94972.06;1022514;29;20485;-72
2023/10/30 00:56:41;;;;;;;1.75;0.45;;;;;;;7.82;100.00;94970.00;1022478;29;20031;-72
2023/10/30 00:57:12;;;;;;;1.02;0.82;;;;;;;7.79;100.00;94960.84;1022510;29;20086;-72
2023/10/30 00:57:42;;;;;;;0.40;0.40;;;;;;;7.74;100.00;94955.63;1022532;28;20040;-74
2023/10/30 00:58:13;;;;;;;0.68;0.68;;;;;;;7.77;100.00;94966.31;1026613;28;20398;-73
2023/10/30 00:58:43;;;;;;;0.17;0.17;;;;;;;7.74;100.00;94959.00;1027290;28;20026;-72
2023/10/30 00:59:14;;;;;;;0.25;0.25;;;;;;;7.73;100.00;94957.44;1027529;28;20085;-72
2023/10/30 00:59:44;;;;;;;1.10;0.65;;;;;;;7.78;100.00;94973.13;1027023;28;20027;-73
2023/10/30 01:00:15;;;;;;;0.75;0.75;;;;;;;7.79;100.00;94968.69;1022610;28;20039;-73
2023/10/30 01:00:46;;;;;;;0.40;0.40;;;;;;;7.78;100.00;94970.50;1027271;28;20110;-71
2023/10/30 01:01:17;;;;;;;0.30;0.30;;;;;;;7.76;100.00;94966.59;1027018;28;20555;-72
2023/10/30 01:01:47;;;;;;;0.10;0.10;;;;;;;7.72;100.00;94962.94;1031138;28;20018;-73
2023/10/30 01:02:18;;;;;;;0.17;0.17;;;;;;;7.72;100.00;94966.34;1035125;28;20064;-72
2023/10/30 01:02:48;;;;;;;0.80;0.80;;;;;;;7.73;100.00;94967.13;1035168;28;20460;-73
2023/10/30 01:03:23;;;;;;;0.98;0.77;;;;;;;7.71;100.00;94964.78;1027153;28;20043;-72
2023/10/30 01:03:53;;;;;;;3.20;0.38;;;;;;;7.70;100.00;94963.19;1027708;28;20521;-73
2023/10/30 01:04:24;;;;;;;0.20;0.20;;;;;;;7.67;100.00;94958.50;1019168;29;20487;-73
2023/10/30 01:04:54;;;;;;;0.30;0.30;;;;;;;7.72;100.00;94963.72;1019792;29;20023;-72
2023/10/30 01:05:25;;;;;;;0.10;0.10;;;;;;;7.73;100.00;94967.13;1023235;29;20030;-72
2023/10/30 01:05:59;;;;;;;0.15;0.15;;;;;;;7.65;100.00;94950.16;1023508;28;20552;-72
2023/10/30 01:06:29;;;;;;;0.57;0.57;;;;;;;7.67;100.00;94953.28;1034317;28;20049;-72
2023/10/30 01:07:01;;;;;;;0.20;0.20;;;;;;;7.73;100.00;94957.44;1027158;28;20734;-74
2023/10/30 01:07:32;;;;;;;7.68;1.52;;;;;;;7.69;100.00;94961.66;1026563;28;20092;-73
2023/10/30 01:08:08;;;;;;;1.17;1.17;;;;;;;7.69;100.00;94961.66;1026980;28;20730;-71
2023/10/30 01:08:38;;;;;;;0.40;0.40;;;;;;;7.62;100.00;94942.06;1035345;28;20022;-73
2023/10/30 01:09:09;;;;;;;0.20;0.20;;;;;;;7.67;100.00;94962.94;1030604;28;20257;-73
2023/10/30 01:09:39;;;;;;;0.30;0.30;;;;;;;7.65;100.00;94960.59;1022221;29;20022;-73
2023/10/30 01:10:10;;;;;;;0.63;0.47;;;;;;;7.63;100.00;94946.25;1026046;28;20770;-72
2023/10/30 01:10:40;;;;;;;0.55;0.47;;;;;;;7.69;100.00;94955.63;1023242;28;20020;-74
2023/10/30 01:11:11;;;;;;;0.63;0.63;;;;;;;7.66;100.00;94956.94;1027190;28;20031;-71
2023/10/30 01:11:41;;;;;;;0.70;0.63;;;;;;;7.65;100.00;94947.56;1027023;28;20023;-73
2023/10/30 01:12:12;;;;;;;1.17;0.35;;;;;;;7.64;100.00;94947.81;1023212;28;20049;-73
2023/10/30 01:12:42;;;;;;;0.30;0.30;;;;;;;7.64;100.00;94958.25;1019110;29;20075;-71
2023/10/30 01:13:13;;;;;;;0.17;0.17;;;;;;;7.62;100.00;94942.84;1015309;29;20386;-73
2023/10/30 01:13:43;;;;;;;0.95;0.68;;;;;;;7.58;100.00;94928.78;1019254;29;20028;-72
2023/10/30 01:14:13;;;;;;;0.25;0.25;;;;;;;7.57;100.00;94932.41;1023267;28;20019;-73
2023/10/30 01:14:44;;;;;;;0.38;0.32;;;;;;;7.58;100.00;94936.59;1027024;28;20041;-73
2023/10/30 01:15:16;;;;;;;0.98;0.30;;;;;;;7.63;100.00;94943.63;1031031;28;20479;-73
2023/10/30 01:15:46;;;;;;;0.63;0.47;;;;;;;7.62;100.00;94948.06;1027393;28;20401;-74
2023/10/30 01:16:17;;;;;;;0.40;0.40;;;;;;;7.55;100.00;94931.91;1027430;28;20273;-72
2023/10/30 01:16:49;;;;;;;0.30;0.30;;;;;;;7.55;100.00;94939.72;1026927;28;20049;-74
2023/10/30 01:17:19;;;;;;;0.60;0.60;;;;;;;7.58;100.00;94941.81;1027609;28;20026;-72
2023/10/30 01:17:49;;;;;;;0.10;0.10;;;;;;;7.52;100.00;94935.03;1031078;28;20293;-72
2023/10/30 01:18:20;;;;;;;0.70;0.70;;;;;;;7.59;100.00;94940.75;1027415;28;20503;-72
2023/10/30 01:18:50;;;;;;;0.40;0.40;;;;;;;7.58;100.00;94941.81;1031068;28;20049;-74
2023/10/30 01:19:21;;;;;;;0.55;0.32;;;;;;;7.58;100.00;94939.22;1031091;28;20030;-72
2023/10/30 01:19:51;;;;;;;0.80;0.43;;;;;;;7.60;100.00;94944.94;1031165;28;20030;-72
2023/10/30 01:20:22;;;;;;;0.38;0.38;;;;;;;7.53;100.00;94932.16;1030603;28;20030;-74
2023/10/30 01:20:52;;;;;;;4.85;0.40;;;;;;;7.59;100.00;94945.22;1023081;28;20027;-73
2023/10/30 01:21:23;;;;;;;0.20;0.20;;;;;;;7.57;100.00;94941.00;1027050;28;20031;-74
2023/10/30 01:21:54;;;;;;;0.63;0.63;;;;;;;7.60;100.00;94947.53;1026898;28;20022;-72
2023/10/30 01:22:24;;;;;;;0.68;0.68;;;;;;;7.53;100.00;94932.16;1025572;28;20580;-74
2023/10/30 01:22:55;;;;;;;0.80;0.75;;;;;;;7.59;100.00;94946.00;1026830;28;20053;-74
2023/10/30 01:23:26;;;;;;;0.05;0.05;;;;;;;7.59;100.00;94946.00;1022786;29;20035;-75
2023/10/30 01:23:56;;;;;;;0.20;0.20;;;;;;;7.61;100.00;94949.09;1015235;29;20260;-74
2023/10/30 01:24:27;;;;;;;0.50;0.32;;;;;;;7.64;100.00;94953.03;1019116;28;20032;-73
2023/10/30 01:24:57;;;;;;;2.72;1.42;;;;;;;7.63;100.00;94951.47;1023247;28;20149;-72
2023/10/30 01:25:28;;;;;;;0.20;0.20;;;;;;;7.57;100.00;94942.84;1027104;28;20031;-73
2023/10/30 01:25:58;;;;;;;0.40;0.40;;;;;;;7.61;100.00;94946.50;1035301;28;20036;-73
2023/10/30 01:26:29;;;;;;;6.55;1.25;;;;;;;7.61;100.00;94941.28;1023195;29;20499;-71
2023/10/30 01:26:59;;;;;;;1.05;1.05;;;;;;;7.65;100.00;94946.78;1019047;29;20031;-74
2023/10/30 01:27:30;;;;;;;0.75;0.75;;;;;;;7.63;100.00;94941.81;1018973;29;20031;-72
2023/10/30 01:28:00;;;;;;;0.10;0.10;;;;;;;7.63;100.00;94946.25;1015492;29;20528;-75
2023/10/30 01:28:31;;;;;;;0.20;0.20;;;;;;;7.63;100.00;94949.63;1015103;29;20034;-74
2023/10/30 01:29:01;;;;;;;0.30;0.30;;;;;;;7.62;100.00;94940.25;1019369;29;20083;-72
2023/10/30 01:29:32;;;;;;;0.20;0.20;;;;;;;7.60;100.00;94942.31;1023000;28;20403;-73
2023/10/30 01:30:02;;;;;;;1.60;1.27;;;;;;;7.60;100.00;94942.31;1026596;28;20045;-72
2023/10/30 01:30:33;;;;;;;0.63;0.63;;;;;;;7.60;100.00;94939.72;1035417;28;20460;-73
2023/10/30 01:31:04;;;;;;;0.75;0.60;;;;;;;7.54;100.00;94938.16;1031156;28;20806;-72
2023/10/30 01:31:35;;;;;;;0.57;0.57;;;;;;;7.61;100.00;94945.72;1030772;28;20166;-72
2023/10/30 01:32:05;;;;;;;0.68;0.50;;;;;;;7.57;100.00;94937.63;1022853;29;20336;-75
2023/10/30 01:32:36;;;;;;;1.15;0.80;;;;;;;7.55;100.00;94942.34;1015223;29;20024;-73
2023/10/30 01:33:06;;;;;;;0.57;0.55;;;;;;;7.56;100.00;94946.50;1019108;29;20519;-74
2023/10/30 01:33:37;;;;;;;0.30;0.30;;;;;;;7.56;100.00;94943.91;1015002;29;20460;-74
2023/10/30 01:34:07;;;;;;;1.08;0.80;;;;;;;7.50;100.00;94935.28;1019301;28;20059;-73
2023/10/30 01:34:38;;;;;;;2.30;2.10;;;;;;;7.56;100.00;94949.91;1023174;29;20410;-75
2023/10/30 01:35:08;;;;;;;0.10;0.10;;;;;;;7.54;100.00;94938.97;1019180;29;20047;-76
2023/10/30 01:35:39;;;;;;;0.45;0.45;;;;;;;7.58;100.00;94949.66;1022875;29;20042;-72
2023/10/30 01:36:09;;;;;;;0.38;0.22;;;;;;;7.57;100.00;94942.84;1019156;29;20075;-72
2023/10/30 01:36:39;;;;;;;0.47;0.47;;;;;;;7.56;100.00;94943.91;1015239;29;20024;-72
2023/10/30 01:37:10;;;;;;;0.20;0.20;;;;;;;7.57;100.00;94943.63;1015146;29;20028;-71
2023/10/30 01:37:42;;;;;;;0.20;0.20;;;;;;;7.57;100.00;94950.69;1023023;28;20066;-72
2023/10/30 01:38:12;;;;;;;0.45;0.43;;;;;;;7.57;100.00;94946.22;1023288;28;20027;-72
2023/10/30 01:38:43;;;;;;;0.20;0.20;;;;;;;7.56;100.00;94947.28;1023130;28;20282;-74
2023/10/30 01:39:13;;;;;;;0.90;0.43;;;;;;;7.54;100.00;94949.41;1026977;28;20494;-72
2023/10/30 01:39:44;;;;;;;0.10;0.10;;;;;;;7.42;100.00;94925.38;1023086;28;20020;-72
2023/10/30 01:40:14;;;;;;;0.52;0.38;;;;;;;7.49;100.00;94935.56;1026536;28;20072;-74
2023/10/30 01:40:48;;;;;;;0.75;0.75;;;;;;;7.47;100.00;94935.81;1026813;28;20030;-73
2023/10/30 01:41:19;;;;;;;1.15;0.75;;;;;;;7.50;100.00;94940.50;1023138;28;20062;-74
2023/10/30 01:41:49;;;;;;;0.88;0.88;;;;;;;7.50;100.00;94940.50;1022495;29;20931;-73
2023/10/30 01:42:20;;;;;;;0.73;0.63;;;;;;;7.51;100.00;94941.28;1023033;28;20351;-73
2023/10/30 01:42:50;;;;;;;0.32;0.32;;;;;;;7.52;100.00;94945.47;1022680;28;20452;-73
2023/10/30 01:43:33;;;;;;;0.32;0.32;;;;;;;7.48;100.00;94941.84;1026975;28;20093;-74
2023/10/30 01:44:03;;;;;;;4.25;0.82;;;;;;;7.49;100.00;94940.78;1029598;28;20498;-73
2023/10/30 01:44:34;;;;;;;0.20;0.20;;;;;;;7.47;100.00;94948.06;1030942;28;20265;-73
2023/10/30 01:45:05;;;;;;;0.70;0.30;;;;;;;7.45;100.00;94944.97;1031072;28;20025;-73
2023/10/30 01:45:35;;;;;;;0.10;0.10;;;;;;;7.45;100.00;94940.53;1031066;28;20038;-74
2023/10/30 01:46:06;;;;;;;0.75;0.28;;;;;;;7.45;100.00;94944.97;1031179;28;20270;-73
2023/10/30 01:46:36;;;;;;;0.30;0.30;;;;;;;7.45;100.00;94939.75;1035041;28;20026;-72
2023/10/30 01:47:07;;;;;;;2.85;0.68;;;;;;;7.44;100.00;94949.38;1030901;28;20037;-72
2023/10/30 01:47:38;;;;;;;0.30;0.30;;;;;;;7.38;100.00;94939.19;1030980;28;20038;-72
2023/10/30 01:48:08;;;;;;;0.60;0.60;;;;;;;7.43;100.00;94949.66;1030864;28;20420;-72
2023/10/30 01:48:39;;;;;;;0.20;0.20;;;;;;;7.44;100.00;94951.19;1027041;28;20011;-72
2023/10/30 01:49:10;;;;;;;0.50;0.20;;;;;;;7.42;100.00;94945.47;1025528;28;20022;-72
2023/10/30 01:49:40;;;;;;;0.17;0.17;;;;;;;7.38;100.00;94933.97;1018202;29;20034;-73
2023/10/30 01:50:14;;;;;;;2.50;1.45;;;;;;;7.43;100.00;94949.66;1022160;29;20634;-75
2023/10/30 01:50:48;;;;;;;0.93;0.93;;;;;;;7.42;100.00;94950.69;1022831;29;20462;-75
2023/10/30 01:51:19;;;;;;;2.38;1.13;;;;;;;7.39;100.00;94946.78;1018827;29;20260;-74
2023/10/30 01:51:50;;;;;;;0.28;0.28;;;;;;;7.42;100.00;94945.47;1021126;28;22030;-71
2023/10/30 01:52:20;;;;;;;0.30;0.30;;;;;;;7.38;100.00;94947.03;1022683;29;20321;-72
2023/10/30 01:52:51;;;;;;;0.43;0.43;;;;;;;7.42;100.00;94956.69;1023247;28;20082;-72
2023/10/30 01:53:21;;;;;;;0.40;0.35;;;;;;;7.34;100.00;94938.94;1019137;29;20043;-72
2023/10/30 01:53:52;;;;;;;1.15;0.43;;;;;;;7.43;100.00;94957.47;1019281;29;20038;-72
2023/10/30 01:54:22;;;;;;;1.05;0.75;;;;;;;7.37;100.00;94943.63;1015304;29;20654;-72
2023/10/30 01:54:53;;;;;;;0.22;0.22;;;;;;;7.31;100.00;94939.50;1018968;29;20027;-72
2023/10/30 01:55:23;;;;;;;1.58;1.25;;;;;;;7.44;100.00;94954.59;1018968;29;20059;-73
2023/10/30 01:55:54;;;;;;;1.83;1.73;;;;;;;7.45;100.00;94960.63;1019011;29;20028;-73
2023/10/30 01:56:25;;;;;;;5.40;1.65;;;;;;;7.40;100.00;94952.78;1022938;29;20063;-73
2023/10/30 01:56:56;;;;;;;2.78;1.33;;;;;;;7.38;100.00;94952.25;1019054;29;20020;-75
2023/10/30 01:57:27;;;;;;;2.08;1.05;;;;;;;7.38;100.00;94965.28;1026942;28;20270;-73
2023/10/30 01:57:57;;;;;;;0.30;0.30;;;;;;;7.26;100.00;94932.44;1022835;29;20422;-73
2023/10/30 01:58:29;;;;;;;0.63;0.63;;;;;;;7.33;100.00;94953.81;1015014;29;20283;-73
2023/10/30 01:58:59;;;;;;;1.80;1.38;;;;;;;7.38;100.00;94965.28;1026976;28;20617;-74
2023/10/30 01:59:29;;;;;;;0.63;0.63;;;;;;;7.36;100.00;94967.41;1022761;29;20294;-73
2023/10/30 02:00:00;;;;;;;1.00;0.90;;;;;;;7.32;100.00;94962.69;1022226;29;20477;-73
2023/10/30 02:00:30;;;;;;;1.90;1.42;;;;;;;7.29;100.00;94959.81;1018935;29;20054;-74
2023/10/30 02:01:01;;;;;;;0.43;0.43;;;;;;;7.24;100.00;94952.78;1026930;28;20030;-73
2023/10/30 02:01:31;;;;;;;0.98;0.93;;;;;;;7.26;100.00;94952.53;1026691;28;20095;-72
2023/10/30 02:02:02;;;;;;;2.58;1.40;;;;;;;7.22;100.00;94957.47;1018872;29;20526;-73
2023/10/30 02:02:32;;;;;;;0.90;0.55;;;;;;;7.21;100.00;94955.91;1022833;29;20542;-72
2023/10/30 02:03:03;;;;;;;1.10;0.68;;;;;;;7.21;100.00;94952.50;1026723;28;20019;-73
2023/10/30 02:03:34;;;;;;;0.63;0.52;;;;;;;7.25;100.00;94958.78;1018972;29;20024;-72
2023/10/30 02:04:05;;;;;;;1.35;0.75;;;;;;;7.21;100.00;94958.53;1011027;29;20052;-74
2023/10/30 02:04:35;;;;;;;4.38;1.08;;;;;;;7.22;100.00;94965.31;1015160;29;20036;-72
2023/10/30 02:05:08;;;;;;;0.15;0.15;;;;;;;7.22;100.00;94961.91;1015284;29;20389;-72
2023/10/30 02:05:39;;;;;;;1.17;1.17;;;;;;;7.19;100.00;94965.81;1015659;29;20039;-73
2023/10/30 02:06:10;;;;;;;0.95;0.90;;;;;;;7.19;100.00;94968.44;1019522;29;20403;-73
2023/10/30 02:06:40;;;;;;;0.82;0.68;;;;;;;7.15;100.00;94966.59;1025557;28;20991;-74
2023/10/30 02:07:11;;;;;;;1.15;1.08;;;;;;;7.17;100.00;94957.47;1027198;28;20026;-73
2023/10/30 02:07:42;;;;;;;2.70;1.75;;;;;;;7.13;100.00;94959.03;1027167;28;20113;-75
2023/10/30 02:08:12;;;;;;;0.65;0.65;;;;;;;7.09;100.00;94950.94;1026672;28;20363;-72
2023/10/30 02:08:43;;;;;;;0.43;0.43;;;;;;;7.12;100.00;94951.47;1026979;28;20057;-73
2023/10/30 02:09:13;;;;;;;0.52;0.50;;;;;;;7.11;100.00;94958.53;1027106;28;20559;-74
2023/10/30 02:09:45;;;;;;;3.35;0.80;;;;;;;7.10;100.00;94954.31;1030269;28;20030;-72
2023/10/30 02:10:15;;;;;;;0.35;0.28;;;;;;;7.04;100.00;94947.53;1026222;28;20031;-72
2023/10/30 02:10:46;;;;;;;0.25;0.25;;;;;;;7.08;100.00;94956.44;1022705;29;20271;-73
2023/10/30 02:11:16;;;;;;;0.63;0.63;;;;;;;7.07;100.00;94960.84;1019274;29;20036;-73
2023/10/30 02:11:46;;;;;;;0.50;0.50;;;;;;;7.06;100.00;94956.66;1018892;29;20024;-72
2023/10/30 02:12:17;;;;;;;2.22;2.03;;;;;;;6.97;100.00;94941.78;1019101;29;20047;-74
2023/10/30 02:12:49;;;;;;;1.17;1.08;;;;;;;6.99;100.00;94952.75;1017244;29;20031;-73
2023/10/30 02:13:19;;;;;;;1.40;0.85;;;;;;;7.01;100.00;94955.91;1020877;29;20126;-73
2023/10/30 02:13:54;;;;;;;1.75;0.25;;;;;;;6.97;100.00;94952.22;1027108;28;20262;-71
2023/10/30 02:14:24;;;;;;;0.43;0.43;;;;;;;7.01;100.00;94971.56;1024240;28;20054;-74
2023/10/30 02:14:55;;;;;;;3.60;1.42;;;;;;;7.01;100.00;94966.34;1018882;29;20298;-72
2023/10/30 02:15:26;;;;;;;1.15;0.32;;;;;;;7.01;100.00;94961.91;1014981;29;20028;-72
2023/10/30 02:15:56;;;;;;;0.85;0.77;;;;;;;6.98;100.00;94961.63;1019174;29;20497;-72
2023/10/30 02:16:27;;;;;;;0.30;0.30;;;;;;;6.93;100.00;94951.19;1019284;28;20032;-72
2023/10/30 02:16:57;;;;;;;0.68;0.68;;;;;;;6.99;100.00;94965.81;1023268;28;20023;-72
2023/10/30 02:17:28;;;;;;;0.32;0.32;;;;;;;6.92;100.00;94955.63;1023011;28;20027;-73
2023/10/30 02:17:58;;;;;;;0.60;0.60;;;;;;;6.97;100.00;94960.03;1023204;29;20589;-73
2023/10/30 02:18:29;;;;;;;0.20;0.20;;;;;;;6.92;100.00;94957.44;1022873;28;20121;-73
2023/10/30 02:18:59;;;;;;;0.52;0.52;;;;;;;6.88;100.00;94945.97;1023209;28;20510;-73
2023/10/30 02:19:30;;;;;;;2.95;1.08;;;;;;;6.94;100.00;94965.78;1026919;28;20031;-71
2023/10/30 02:20:00;;;;;;;1.13;1.02;;;;;;;6.86;100.00;94954.03;1022260;29;20514;-73
2023/10/30 02:20:31;;;;;;;4.68;1.23;;;;;;;6.92;100.00;94957.44;1019227;29;20799;-72
2023/10/30 02:21:02;;;;;;;0.65;0.65;;;;;;;6.93;100.00;94961.59;1023071;29;20023;-73
2023/10/30 02:21:32;;;;;;;2.35;1.50;;;;;;;6.90;100.00;94959.53;1022765;29;20046;-71
2023/10/30 02:22:02;;;;;;;0.65;0.65;;;;;;;6.87;100.00;94957.41;1022384;29;20031;-73
2023/10/30 02:22:33;;;;;;;2.45;1.15;;;;;;;6.90;100.00;94960.28;1022901;29;20234;-72
2023/10/30 02:23:03;;;;;;;0.52;0.52;;;;;;;6.88;100.00;94959.78;1022369;28;20031;-72
2023/10/30 02:23:34;;;;;;;0.60;0.60;;;;;;;6.88;100.00;94962.41;1027068;28;20026;-74
2023/10/30 02:24:06;;;;;;;1.30;1.15;;;;;;;6.85;100.00;94955.09;1027275;28;20023;-72
2023/10/30 02:24:36;;;;;;;2.83;1.48;;;;;;;6.80;100.00;94949.84;1023307;29;20030;-74
2023/10/30 02:25:07;;;;;;;1.13;1.13;;;;;;;6.87;100.00;94965.25;1026480;28;20281;-73